createdAt,value
2018-08-14T00:00:19.578Z,0.00
2018-08-14T00:01:19.546Z,0.00
2018-08-14T00:03:12.406Z,0.00
2018-08-14T00:04:12.360Z,0.00
2018-08-14T00:06:05.214Z,0.00
2018-08-14T00:07:05.157Z,0.00
2018-08-14T00:08:58.016Z,0.00
2018-08-14T00:09:57.967Z,0.00
2018-08-14T00:11:50.827Z,0.00
2018-08-14T00:12:50.769Z,0.00
2018-08-14T00:14:43.604Z,0.00
2018-08-14T00:15:43.572Z,0.00
2018-08-14T00:17:36.435Z,0.00
2018-08-14T00:18:36.385Z,0.00
2018-08-14T00:20:29.215Z,0.00
2018-08-14T00:21:29.186Z,0.00
2018-08-14T00:23:22.047Z,0.00
2018-08-14T00:24:21.994Z,0.00
2018-08-14T00:26:14.854Z,0.00
2018-08-14T00:27:14.797Z,0.00
2018-08-14T00:29:07.640Z,0.00
2018-08-14T00:30:07.603Z,0.00
2018-08-14T00:32:00.466Z,0.00
2018-08-14T00:33:00.410Z,0.00
2018-08-14T00:34:53.247Z,0.00
2018-08-14T00:35:53.213Z,0.00
2018-08-14T00:37:46.076Z,0.00
2018-08-14T00:38:46.024Z,0.00
2018-08-14T00:40:38.864Z,0.00
2018-08-14T00:41:38.832Z,0.00
2018-08-14T00:43:31.703Z,0.00
2018-08-14T00:44:31.635Z,0.00
2018-08-14T00:46:24.469Z,0.00
2018-08-14T00:47:24.443Z,0.00
2018-08-14T00:49:17.299Z,0.00
2018-08-14T00:50:17.241Z,0.00
2018-08-14T00:52:10.110Z,0.00
2018-08-14T00:53:10.049Z,0.00
2018-08-14T00:55:02.890Z,0.00
2018-08-14T00:56:02.856Z,0.00
2018-08-14T00:57:55.744Z,0.00
2018-08-14T00:58:55.692Z,0.00
2018-08-14T00:59:55.670Z,0.00
2018-08-14T01:00:55.643Z,0.00
2018-08-14T01:01:55.616Z,0.00
2018-08-14T01:02:55.601Z,0.00
2018-08-14T01:03:55.563Z,0.00
2018-08-14T01:04:55.541Z,0.00
2018-08-14T01:05:55.515Z,0.00
2018-08-14T01:06:55.491Z,0.00
2018-08-14T01:07:55.465Z,0.00
2018-08-14T01:08:55.440Z,0.00
2018-08-14T01:09:55.417Z,0.00
2018-08-14T01:10:55.382Z,0.00
2018-08-14T01:11:55.365Z,0.00
2018-08-14T01:12:55.333Z,0.00
2018-08-14T01:13:55.318Z,0.00
2018-08-14T01:15:02.263Z,0.00
2018-08-14T01:15:55.259Z,0.00
2018-08-14T01:16:55.238Z,0.00
2018-08-14T01:17:55.209Z,0.00
2018-08-14T01:18:55.182Z,0.00
2018-08-14T01:19:55.164Z,0.00
2018-08-14T01:20:55.125Z,0.00
2018-08-14T01:21:55.104Z,0.00
2018-08-14T01:22:55.085Z,0.00
2018-08-14T01:23:55.161Z,0.00
2018-08-14T01:24:55.026Z,0.00
2018-08-14T01:25:55.009Z,0.00
2018-08-14T01:26:54.973Z,0.00
2018-08-14T01:27:54.950Z,0.00
2018-08-14T01:28:54.928Z,0.00
2018-08-14T01:29:54.902Z,0.00
2018-08-14T01:30:54.871Z,0.00
2018-08-14T01:31:54.848Z,0.00
2018-08-14T01:32:54.827Z,0.00
2018-08-14T01:33:54.791Z,0.00
2018-08-14T01:34:54.777Z,0.00
2018-08-14T01:35:54.748Z,0.00
2018-08-14T01:36:54.719Z,0.00
2018-08-14T01:37:54.697Z,0.00
2018-08-14T01:38:54.662Z,0.00
2018-08-14T01:39:54.647Z,0.00
2018-08-14T01:40:54.616Z,0.00
2018-08-14T01:41:54.587Z,0.00
2018-08-14T01:42:54.570Z,0.00
2018-08-14T01:43:54.537Z,0.00
2018-08-14T01:44:54.519Z,0.00
2018-08-14T01:45:54.485Z,0.00
2018-08-14T01:46:54.468Z,0.00
2018-08-14T01:47:54.439Z,0.00
2018-08-14T01:48:54.413Z,0.00
2018-08-14T01:49:54.389Z,0.00
2018-08-14T01:50:54.356Z,0.00
2018-08-14T01:51:54.334Z,0.00
2018-08-14T01:52:54.314Z,0.00
2018-08-14T01:53:54.286Z,0.00
2018-08-14T01:54:54.258Z,0.00
2018-08-14T01:55:54.234Z,0.00
2018-08-14T01:56:54.204Z,0.00
2018-08-14T01:57:54.186Z,0.00
2018-08-14T01:58:54.152Z,0.00
2018-08-14T01:59:54.134Z,0.00
2018-08-14T02:00:54.100Z,0.00
2018-08-14T02:01:54.081Z,0.00
2018-08-14T02:02:54.050Z,0.00
2018-08-14T02:03:54.034Z,0.00
2018-08-14T02:04:54.005Z,0.00
2018-08-14T02:05:53.970Z,0.00
2018-08-14T02:06:53.955Z,0.00
2018-08-14T02:07:53.926Z,0.00
2018-08-14T02:08:53.903Z,0.00
2018-08-14T02:09:53.869Z,0.00
2018-08-14T02:10:53.851Z,0.00
2018-08-14T02:11:53.824Z,0.00
2018-08-14T02:12:53.791Z,0.00
2018-08-14T02:13:53.766Z,0.00
2018-08-14T02:14:53.748Z,0.00
2018-08-14T02:15:53.718Z,0.00
2018-08-14T02:16:53.694Z,0.00
2018-08-14T02:17:53.666Z,0.00
2018-08-14T02:18:53.638Z,0.00
2018-08-14T02:19:53.616Z,0.00
2018-08-14T02:20:53.593Z,0.00
2018-08-14T02:21:53.562Z,0.00
2018-08-14T02:22:53.544Z,0.00
2018-08-14T02:23:53.510Z,0.00
2018-08-14T02:24:53.489Z,0.00
2018-08-14T02:25:53.461Z,0.00
2018-08-14T02:26:53.430Z,0.00
2018-08-14T02:27:53.407Z,0.00
2018-08-14T02:28:53.385Z,0.00
2018-08-14T02:29:53.355Z,0.00
2018-08-14T02:30:53.332Z,0.00
2018-08-14T02:31:53.309Z,0.00
2018-08-14T02:32:53.282Z,0.00
2018-08-14T02:33:53.258Z,0.00
2018-08-14T02:34:53.227Z,0.00
2018-08-14T02:35:53.198Z,0.00
2018-08-14T02:36:53.181Z,0.00
2018-08-14T02:37:53.146Z,0.00
2018-08-14T02:38:53.131Z,0.00
2018-08-14T02:39:53.097Z,0.00
2018-08-14T02:40:53.077Z,0.00
2018-08-14T02:41:53.045Z,0.00
2018-08-14T02:42:53.021Z,0.00
2018-08-14T02:43:52.999Z,0.00
2018-08-14T02:44:52.968Z,0.00
2018-08-14T02:45:52.942Z,0.00
2018-08-14T02:46:52.916Z,0.00
2018-08-14T02:47:52.887Z,0.00
2018-08-14T02:48:52.873Z,0.00
2018-08-14T02:49:52.837Z,0.00
2018-08-14T02:50:52.818Z,0.00
2018-08-14T02:51:52.791Z,0.00
2018-08-14T02:52:52.760Z,0.00
2018-08-14T02:53:52.741Z,0.00
2018-08-14T02:54:52.706Z,0.00
2018-08-14T02:55:52.683Z,0.00
2018-08-14T02:56:52.661Z,0.00
2018-08-14T02:57:52.629Z,0.00
2018-08-14T02:58:52.611Z,0.00
2018-08-14T02:59:52.576Z,0.00
2018-08-14T03:00:52.564Z,0.00
2018-08-14T03:01:52.529Z,0.00
2018-08-14T03:02:52.505Z,0.00
2018-08-14T03:03:52.480Z,0.00
2018-08-14T03:04:52.458Z,0.00
2018-08-14T03:05:52.470Z,0.00
2018-08-14T03:06:52.397Z,0.00
2018-08-14T03:07:52.381Z,0.00
2018-08-14T03:08:52.358Z,0.00
2018-08-14T03:09:52.321Z,0.00
2018-08-14T03:10:52.303Z,0.00
2018-08-14T03:11:52.272Z,0.00
2018-08-14T03:12:52.251Z,0.00
2018-08-14T03:13:52.221Z,0.00
2018-08-14T03:14:52.202Z,0.00
2018-08-14T03:15:52.168Z,0.00
2018-08-14T03:16:52.147Z,0.00
2018-08-14T03:17:52.117Z,0.00
2018-08-14T03:18:52.097Z,0.00
2018-08-14T03:19:52.069Z,0.00
2018-08-14T03:20:52.046Z,0.00
2018-08-14T03:21:52.020Z,0.00
2018-08-14T03:22:51.998Z,0.00
2018-08-14T03:23:51.965Z,0.00
2018-08-14T03:24:51.945Z,0.00
2018-08-14T03:25:51.910Z,0.00
2018-08-14T03:26:51.891Z,0.00
2018-08-14T03:27:51.870Z,0.00
2018-08-14T03:28:51.838Z,0.00
2018-08-14T03:29:51.813Z,0.00
2018-08-14T03:30:51.781Z,0.00
2018-08-14T03:31:51.766Z,0.00
2018-08-14T03:32:51.730Z,0.00
2018-08-14T03:33:51.712Z,0.00
2018-08-14T03:34:51.678Z,0.00
2018-08-14T03:35:51.661Z,0.00
2018-08-14T03:36:51.629Z,0.00
2018-08-14T03:37:51.601Z,0.00
2018-08-14T03:38:51.584Z,0.00
2018-08-14T03:39:51.554Z,0.00
2018-08-14T03:40:51.525Z,0.00
2018-08-14T03:41:51.671Z,0.00
2018-08-14T03:42:51.472Z,0.00
2018-08-14T03:43:51.448Z,0.00
2018-08-14T03:44:51.421Z,0.00
2018-08-14T03:45:51.399Z,0.00
2018-08-14T03:46:51.377Z,0.00
2018-08-14T03:47:51.342Z,0.00
2018-08-14T03:48:51.326Z,0.00
2018-08-14T03:49:51.292Z,0.00
2018-08-14T03:50:51.271Z,0.00
2018-08-14T03:51:51.242Z,0.00
2018-08-14T03:52:51.219Z,0.00
2018-08-14T03:53:51.195Z,0.00
2018-08-14T03:54:51.168Z,0.00
2018-08-14T03:55:51.142Z,0.00
2018-08-14T03:56:51.122Z,0.00
2018-08-14T03:57:51.131Z,0.00
2018-08-14T03:58:51.137Z,0.00
2018-08-14T03:59:51.119Z,0.00
2018-08-14T04:00:51.021Z,0.00
2018-08-14T04:01:50.984Z,0.00
2018-08-14T04:02:50.962Z,0.00
2018-08-14T04:03:50.934Z,0.00
2018-08-14T04:04:50.913Z,0.00
2018-08-14T04:05:50.885Z,0.00
2018-08-14T04:06:50.858Z,0.00
2018-08-14T04:07:50.837Z,0.00
2018-08-14T04:08:50.805Z,0.00
2018-08-14T04:09:50.820Z,0.00
2018-08-14T04:10:50.792Z,0.00
2018-08-14T04:11:50.791Z,0.00
2018-08-14T04:12:50.709Z,0.00
2018-08-14T04:13:50.677Z,0.00
2018-08-14T04:14:50.653Z,0.00
2018-08-14T04:15:50.625Z,0.00
2018-08-14T04:16:50.606Z,0.00
2018-08-14T04:17:50.575Z,0.00
2018-08-14T04:18:50.548Z,0.00
2018-08-14T04:19:50.524Z,0.00
2018-08-14T04:20:50.504Z,0.00
2018-08-14T04:21:50.471Z,0.00
2018-08-14T04:22:50.451Z,0.00
2018-08-14T04:23:50.429Z,0.00
2018-08-14T04:24:50.391Z,0.00
2018-08-14T04:25:50.374Z,0.00
2018-08-14T04:26:50.433Z,0.00
2018-08-14T04:27:50.323Z,0.00
2018-08-14T04:28:50.294Z,0.00
2018-08-14T04:29:50.267Z,0.00
2018-08-14T04:30:50.246Z,0.00
2018-08-14T04:31:50.213Z,0.00
2018-08-14T04:32:50.194Z,0.00
2018-08-14T04:33:50.163Z,0.00
2018-08-14T04:34:50.141Z,0.00
2018-08-14T04:35:50.125Z,0.00
2018-08-14T04:36:50.094Z,0.00
2018-08-14T04:37:50.060Z,0.00
2018-08-14T04:38:50.043Z,0.00
2018-08-14T04:39:50.006Z,5.63
2018-08-14T04:40:49.989Z,5.63
2018-08-14T04:41:49.955Z,5.63
2018-08-14T04:42:49.946Z,0.00
2018-08-14T04:43:49.905Z,0.00
2018-08-14T04:44:49.977Z,5.63
2018-08-14T04:45:49.868Z,5.63
2018-08-14T04:46:49.828Z,5.63
2018-08-14T04:47:49.804Z,5.63
2018-08-14T04:48:49.781Z,5.63
2018-08-14T04:49:49.754Z,5.63
2018-08-14T04:50:49.726Z,5.63
2018-08-14T04:51:49.699Z,5.63
2018-08-14T04:52:49.683Z,5.63
2018-08-14T04:53:49.694Z,5.63
2018-08-14T04:54:49.640Z,5.63
2018-08-14T04:55:49.599Z,5.63
2018-08-14T04:56:49.577Z,5.63
2018-08-14T04:57:49.556Z,5.63
2018-08-14T04:58:49.523Z,5.63
2018-08-14T04:59:49.499Z,5.63
2018-08-14T05:00:49.471Z,5.63
2018-08-14T05:01:49.449Z,5.63
2018-08-14T05:02:49.424Z,5.63
2018-08-14T05:03:49.395Z,5.63
2018-08-14T05:04:49.366Z,0.00
2018-08-14T05:05:49.344Z,0.00
2018-08-14T05:06:49.316Z,0.00
2018-08-14T05:07:49.295Z,0.00
2018-08-14T05:08:49.305Z,0.00
2018-08-14T05:09:49.234Z,5.63
2018-08-14T05:10:49.217Z,5.63
2018-08-14T05:11:49.185Z,5.63
2018-08-14T05:12:49.167Z,5.63
2018-08-14T05:13:49.138Z,5.63
2018-08-14T05:14:49.108Z,5.63
2018-08-14T05:15:49.087Z,5.63
2018-08-14T05:16:49.063Z,5.63
2018-08-14T05:17:49.041Z,5.63
2018-08-14T05:18:49.001Z,5.63
2018-08-14T05:19:56.166Z,5.63
2018-08-14T05:21:41.924Z,5.63
2018-08-14T05:22:41.788Z,11.25
2018-08-14T05:24:34.660Z,11.25
2018-08-14T05:25:34.603Z,16.88
2018-08-14T05:27:27.453Z,28.13
2018-08-14T05:28:27.417Z,16.88
2018-08-14T05:30:20.291Z,22.50
2018-08-14T05:31:20.237Z,16.88
2018-08-14T05:33:13.099Z,16.88
2018-08-14T05:34:13.042Z,16.88
2018-08-14T05:36:05.907Z,16.88
2018-08-14T05:37:05.860Z,22.50
2018-08-14T05:38:58.691Z,16.88
2018-08-14T05:39:58.663Z,16.88
2018-08-14T05:41:51.670Z,11.25
2018-08-14T05:42:51.466Z,11.25
2018-08-14T05:44:44.334Z,11.25
2018-08-14T05:45:44.269Z,11.25
2018-08-14T05:47:37.104Z,11.25
2018-08-14T05:48:37.082Z,11.25
2018-08-14T05:50:29.941Z,28.13
2018-08-14T05:51:29.884Z,39.38
2018-08-14T05:53:22.719Z,45.00
2018-08-14T05:54:22.693Z,50.63
2018-08-14T05:56:15.560Z,56.25
2018-08-14T05:57:15.513Z,61.88
2018-08-14T05:59:08.379Z,45.00
2018-08-14T06:00:08.319Z,39.38
2018-08-14T06:02:01.165Z,45.00
2018-08-14T06:03:01.149Z,39.38
2018-08-14T06:04:54.009Z,45.00
2018-08-14T06:05:53.944Z,45.00
2018-08-14T06:07:46.786Z,28.13
2018-08-14T06:08:46.758Z,28.13
2018-08-14T06:10:39.617Z,16.88
2018-08-14T06:11:39.565Z,22.50
2018-08-14T06:13:32.412Z,22.50
2018-08-14T06:14:32.376Z,33.75
2018-08-14T06:16:25.246Z,50.63
2018-08-14T06:17:25.190Z,61.88
2018-08-14T06:19:18.044Z,45.00
2018-08-14T06:20:18.009Z,61.88
2018-08-14T06:22:10.854Z,67.50
2018-08-14T06:23:10.803Z,78.75
2018-08-14T06:25:03.701Z,101.25
2018-08-14T06:26:03.608Z,112.50
2018-08-14T06:27:56.493Z,56.25
2018-08-14T06:28:56.428Z,50.63
2018-08-14T06:29:56.386Z,56.25
2018-08-14T06:30:56.365Z,61.88
2018-08-14T06:31:56.333Z,73.13
2018-08-14T06:32:56.315Z,78.75
2018-08-14T06:33:56.367Z,73.13
2018-08-14T06:34:56.264Z,73.13
2018-08-14T06:35:56.228Z,67.50
2018-08-14T06:36:56.211Z,84.38
2018-08-14T06:37:56.182Z,90.00
2018-08-14T06:38:56.158Z,78.75
2018-08-14T06:39:56.125Z,78.75
2018-08-14T06:40:56.105Z,73.13
2018-08-14T06:41:56.075Z,61.88
2018-08-14T06:42:56.057Z,56.25
2018-08-14T06:43:56.035Z,61.88
2018-08-14T06:44:55.998Z,61.88
2018-08-14T06:45:56.002Z,67.50
2018-08-14T06:46:55.952Z,84.38
2018-08-14T06:47:55.919Z,73.13
2018-08-14T06:48:55.921Z,73.13
2018-08-14T06:49:55.877Z,67.50
2018-08-14T06:50:55.846Z,39.38
2018-08-14T06:51:55.817Z,56.25
2018-08-14T06:52:55.791Z,50.63
2018-08-14T06:53:55.766Z,56.25
2018-08-14T06:54:55.757Z,50.63
2018-08-14T06:55:55.714Z,61.88
2018-08-14T06:56:55.692Z,67.50
2018-08-14T06:57:55.665Z,56.25
2018-08-14T06:58:55.642Z,50.63
2018-08-14T06:59:55.614Z,50.63
2018-08-14T07:00:55.588Z,67.50
2018-08-14T07:01:55.560Z,73.13
2018-08-14T07:02:55.553Z,78.75
2018-08-14T07:03:55.507Z,84.38
2018-08-14T07:04:55.489Z,90.00
2018-08-14T07:05:55.454Z,112.50
2018-08-14T07:06:55.435Z,106.88
2018-08-14T07:07:55.402Z,129.38
2018-08-14T07:08:55.423Z,123.75
2018-08-14T07:09:55.356Z,146.25
2018-08-14T07:10:55.331Z,118.13
2018-08-14T07:11:55.298Z,101.25
2018-08-14T07:12:55.277Z,90.00
2018-08-14T07:13:55.253Z,90.00
2018-08-14T07:14:55.226Z,101.25
2018-08-14T07:15:55.204Z,95.63
2018-08-14T07:16:55.170Z,112.50
2018-08-14T07:17:55.150Z,146.25
2018-08-14T07:18:55.121Z,163.13
2018-08-14T07:19:55.096Z,163.13
2018-08-14T07:20:55.065Z,151.88
2018-08-14T07:21:55.048Z,146.25
2018-08-14T07:22:55.024Z,140.63
2018-08-14T07:23:54.999Z,163.13
2018-08-14T07:24:54.970Z,129.38
2018-08-14T07:25:54.943Z,140.63
2018-08-14T07:26:54.912Z,140.63
2018-08-14T07:27:54.893Z,123.75
2018-08-14T07:28:54.866Z,106.88
2018-08-14T07:29:54.840Z,140.63
2018-08-14T07:30:54.810Z,129.38
2018-08-14T07:31:54.803Z,101.25
2018-08-14T07:32:54.761Z,84.38
2018-08-14T07:33:54.734Z,61.88
2018-08-14T07:34:54.712Z,50.63
2018-08-14T07:35:54.684Z,50.63
2018-08-14T07:36:54.670Z,50.63
2018-08-14T07:37:54.644Z,56.25
2018-08-14T07:38:54.610Z,67.50
2018-08-14T07:39:54.576Z,78.75
2018-08-14T07:40:54.592Z,140.63
2018-08-14T07:41:54.533Z,174.38
2018-08-14T07:42:54.502Z,140.63
2018-08-14T07:43:54.473Z,106.88
2018-08-14T07:44:54.448Z,146.25
2018-08-14T07:45:54.430Z,118.13
2018-08-14T07:46:54.400Z,95.63
2018-08-14T07:47:54.373Z,129.38
2018-08-14T07:48:54.351Z,191.25
2018-08-14T07:49:54.326Z,202.50
2018-08-14T07:50:54.347Z,191.25
2018-08-14T07:51:54.395Z,225.00
2018-08-14T07:52:54.243Z,180.00
2018-08-14T07:53:54.228Z,202.50
2018-08-14T07:54:54.197Z,230.63
2018-08-14T07:55:54.169Z,230.63
2018-08-14T07:56:54.139Z,219.38
2018-08-14T07:57:54.183Z,202.50
2018-08-14T07:58:54.093Z,202.50
2018-08-14T07:59:54.070Z,191.25
2018-08-14T08:00:54.042Z,157.50
2018-08-14T08:01:54.019Z,151.88
2018-08-14T08:02:54.000Z,185.63
2018-08-14T08:03:53.972Z,196.88
2018-08-14T08:04:53.941Z,196.88
2018-08-14T08:05:53.929Z,185.63
2018-08-14T08:06:53.889Z,180.00
2018-08-14T08:07:53.863Z,191.25
2018-08-14T08:08:53.845Z,202.50
2018-08-14T08:09:53.809Z,213.75
2018-08-14T08:10:53.792Z,225.00
2018-08-14T08:11:53.769Z,225.00
2018-08-14T08:12:53.735Z,208.13
2018-08-14T08:13:53.709Z,208.13
2018-08-14T08:14:53.687Z,241.88
2018-08-14T08:15:53.670Z,140.63
2018-08-14T08:16:53.636Z,168.75
2018-08-14T08:17:53.613Z,163.13
2018-08-14T08:18:53.582Z,157.50
2018-08-14T08:19:53.561Z,157.50
2018-08-14T08:20:53.534Z,163.13
2018-08-14T08:21:53.509Z,151.88
2018-08-14T08:22:53.479Z,174.38
2018-08-14T08:23:53.457Z,135.00
2018-08-14T08:24:53.428Z,140.63
2018-08-14T08:25:53.411Z,123.75
2018-08-14T08:26:53.438Z,129.38
2018-08-14T08:27:53.359Z,151.88
2018-08-14T08:28:53.333Z,174.38
2018-08-14T08:29:53.309Z,129.38
2018-08-14T08:30:53.273Z,112.50
2018-08-14T08:31:53.259Z,78.75
2018-08-14T08:32:53.231Z,56.25
2018-08-14T08:33:53.196Z,45.00
2018-08-14T08:34:53.176Z,45.00
2018-08-14T08:35:53.147Z,61.88
2018-08-14T08:36:53.122Z,56.25
2018-08-14T08:37:53.104Z,61.88
2018-08-14T08:38:53.074Z,112.50
2018-08-14T08:39:53.048Z,174.38
2018-08-14T08:40:53.026Z,168.75
2018-08-14T08:41:52.997Z,174.38
2018-08-14T08:42:52.971Z,157.50
2018-08-14T08:43:52.949Z,146.25
2018-08-14T08:44:52.918Z,196.88
2018-08-14T08:45:52.890Z,219.38
2018-08-14T08:46:52.873Z,202.50
2018-08-14T08:47:52.843Z,151.88
2018-08-14T08:48:52.847Z,118.13
2018-08-14T08:49:52.797Z,129.38
2018-08-14T08:50:52.769Z,118.13
2018-08-14T08:51:52.748Z,106.88
2018-08-14T08:52:52.761Z,90.00
2018-08-14T08:53:52.718Z,84.38
2018-08-14T08:54:52.668Z,73.13
2018-08-14T08:55:52.645Z,67.50
2018-08-14T08:56:52.614Z,73.13
2018-08-14T08:57:52.595Z,73.13
2018-08-14T08:58:52.568Z,95.63
2018-08-14T08:59:52.538Z,101.25
2018-08-14T09:00:52.515Z,180.00
2018-08-14T09:01:52.495Z,185.63
2018-08-14T09:02:52.460Z,146.25
2018-08-14T09:03:52.465Z,123.75
2018-08-14T09:04:52.411Z,112.50
2018-08-14T09:05:52.387Z,112.50
2018-08-14T09:06:52.364Z,123.75
2018-08-14T09:07:52.332Z,112.50
2018-08-14T09:08:52.310Z,95.63
2018-08-14T09:09:52.283Z,84.38
2018-08-14T09:10:52.260Z,101.25
2018-08-14T09:11:52.232Z,151.88
2018-08-14T09:12:52.216Z,174.38
2018-08-14T09:13:52.181Z,185.63
2018-08-14T09:14:52.162Z,185.63
2018-08-14T09:15:52.128Z,202.50
2018-08-14T09:16:52.112Z,202.50
2018-08-14T09:17:52.079Z,202.50
2018-08-14T09:18:52.061Z,202.50
2018-08-14T09:19:52.027Z,208.13
2018-08-14T09:20:52.009Z,202.50
2018-08-14T09:21:51.979Z,213.75
2018-08-14T09:22:51.956Z,208.13
2018-08-14T09:23:51.928Z,202.50
2018-08-14T09:24:51.914Z,180.00
2018-08-14T09:25:51.875Z,163.13
2018-08-14T09:26:51.858Z,123.75
2018-08-14T09:27:51.826Z,129.38
2018-08-14T09:28:51.804Z,101.25
2018-08-14T09:29:51.778Z,101.25
2018-08-14T09:30:51.753Z,106.88
2018-08-14T09:31:51.732Z,118.13
2018-08-14T09:32:51.704Z,118.13
2018-08-14T09:33:51.677Z,151.88
2018-08-14T09:34:51.674Z,168.75
2018-08-14T09:35:51.624Z,180.00
2018-08-14T09:36:51.627Z,163.13
2018-08-14T09:37:51.574Z,123.75
2018-08-14T09:38:51.593Z,123.75
2018-08-14T09:39:51.521Z,185.63
2018-08-14T09:40:51.497Z,247.50
2018-08-14T09:41:51.516Z,225.00
2018-08-14T09:42:51.469Z,196.88
2018-08-14T09:43:51.454Z,202.50
2018-08-14T09:44:51.403Z,191.25
2018-08-14T09:45:51.371Z,168.75
2018-08-14T09:46:51.353Z,140.63
2018-08-14T09:47:51.326Z,129.38
2018-08-14T09:48:51.295Z,140.63
2018-08-14T09:49:51.276Z,146.25
2018-08-14T09:50:51.253Z,180.00
2018-08-14T09:51:51.218Z,185.63
2018-08-14T09:52:51.194Z,196.88
2018-08-14T09:53:51.218Z,202.50
2018-08-14T09:54:51.148Z,180.00
2018-08-14T09:55:51.122Z,163.13
2018-08-14T09:56:51.102Z,180.00
2018-08-14T09:57:51.069Z,196.88
2018-08-14T09:58:51.044Z,151.88
2018-08-14T09:59:51.023Z,112.50
2018-08-14T10:00:50.996Z,118.13
2018-08-14T10:01:50.976Z,129.38
2018-08-14T10:02:50.948Z,163.13
2018-08-14T10:03:50.923Z,140.63
2018-08-14T10:04:50.933Z,90.00
2018-08-14T10:05:50.870Z,73.13
2018-08-14T10:06:50.842Z,73.13
2018-08-14T10:07:50.819Z,84.38
2018-08-14T10:08:50.867Z,101.25
2018-08-14T10:09:50.769Z,129.38
2018-08-14T10:10:50.753Z,196.88
2018-08-14T10:11:50.717Z,258.75
2018-08-14T10:12:50.697Z,236.25
2018-08-14T10:13:50.669Z,236.25
2018-08-14T10:14:50.712Z,270.00
2018-08-14T10:15:50.619Z,258.75
2018-08-14T10:16:50.599Z,264.38
2018-08-14T10:17:50.567Z,230.63
2018-08-14T10:18:50.548Z,191.25
2018-08-14T10:19:50.560Z,157.50
2018-08-14T10:20:50.528Z,135.00
2018-08-14T10:21:50.476Z,146.25
2018-08-14T10:22:50.441Z,146.25
2018-08-14T10:23:50.421Z,163.13
2018-08-14T10:24:50.431Z,180.00
2018-08-14T10:25:50.375Z,208.13
2018-08-14T10:26:50.418Z,230.63
2018-08-14T10:27:50.323Z,241.88
2018-08-14T10:28:50.341Z,258.75
2018-08-14T10:29:50.265Z,270.00
2018-08-14T10:30:50.248Z,258.75
2018-08-14T10:31:50.219Z,264.38
2018-08-14T10:32:50.196Z,236.25
2018-08-14T10:33:50.168Z,230.63
2018-08-14T10:34:50.148Z,247.50
2018-08-14T10:35:50.117Z,219.38
2018-08-14T10:36:50.095Z,230.63
2018-08-14T10:37:50.069Z,208.13
2018-08-14T10:38:50.040Z,208.13
2018-08-14T10:39:50.028Z,225.00
2018-08-14T10:40:49.996Z,230.63
2018-08-14T10:41:49.966Z,208.13
2018-08-14T10:42:49.948Z,180.00
2018-08-14T10:43:49.921Z,168.75
2018-08-14T10:44:49.902Z,168.75
2018-08-14T10:45:49.886Z,168.75
2018-08-14T10:46:49.849Z,174.38
2018-08-14T10:47:49.819Z,174.38
2018-08-14T10:48:49.797Z,191.25
2018-08-14T10:49:49.769Z,208.13
2018-08-14T10:50:49.753Z,208.13
2018-08-14T10:51:49.744Z,174.38
2018-08-14T10:52:49.700Z,174.38
2018-08-14T10:53:49.670Z,191.25
2018-08-14T10:54:49.650Z,208.13
2018-08-14T10:55:49.619Z,241.88
2018-08-14T10:56:49.593Z,253.13
2018-08-14T10:57:49.568Z,309.38
2018-08-14T10:58:49.664Z,225.00
2018-08-14T10:59:49.519Z,196.88
2018-08-14T11:00:49.500Z,185.63
2018-08-14T11:01:49.475Z,140.63
2018-08-14T11:02:49.460Z,106.88
2018-08-14T11:03:49.427Z,101.25
2018-08-14T11:04:49.449Z,106.88
2018-08-14T11:05:49.373Z,112.50
2018-08-14T11:06:49.346Z,135.00
2018-08-14T11:07:49.323Z,157.50
2018-08-14T11:08:49.301Z,157.50
2018-08-14T11:09:49.293Z,157.50
2018-08-14T11:10:49.343Z,168.75
2018-08-14T11:11:49.218Z,202.50
2018-08-14T11:12:49.199Z,157.50
2018-08-14T11:13:49.172Z,140.63
2018-08-14T11:14:49.149Z,135.00
2018-08-14T11:15:49.122Z,135.00
2018-08-14T11:16:49.107Z,129.38
2018-08-14T11:17:49.072Z,135.00
2018-08-14T11:18:49.054Z,135.00
2018-08-14T11:19:49.730Z,123.75
2018-08-14T11:20:49.002Z,112.50
2018-08-14T11:21:48.973Z,123.75
2018-08-14T11:22:48.958Z,129.38
2018-08-14T11:23:48.923Z,140.63
2018-08-14T11:24:48.973Z,146.25
2018-08-14T11:25:48.875Z,163.13
2018-08-14T11:26:48.847Z,174.38
2018-08-14T11:27:48.826Z,208.13
2018-08-14T11:28:48.800Z,230.63
2018-08-14T11:29:48.785Z,253.13
2018-08-14T11:30:48.752Z,241.88
2018-08-14T11:31:48.744Z,236.25
2018-08-14T11:32:48.702Z,241.88
2018-08-14T11:33:48.684Z,253.13
2018-08-14T11:34:48.675Z,241.88
2018-08-14T11:35:48.628Z,253.13
2018-08-14T11:36:48.603Z,236.25
2018-08-14T11:37:48.579Z,196.88
2018-08-14T11:38:48.694Z,174.38
2018-08-14T11:39:48.544Z,163.13
2018-08-14T11:40:48.506Z,140.63
2018-08-14T11:41:48.481Z,140.63
2018-08-14T11:42:48.454Z,140.63
2018-08-14T11:43:48.431Z,163.13
2018-08-14T11:44:48.406Z,196.88
2018-08-14T11:45:48.386Z,241.88
2018-08-14T11:46:48.365Z,253.13
2018-08-14T11:47:48.330Z,253.13
2018-08-14T11:48:48.312Z,253.13
2018-08-14T11:49:48.279Z,253.13
2018-08-14T11:50:48.287Z,270.00
2018-08-14T11:51:48.240Z,258.75
2018-08-14T11:52:48.220Z,247.50
2018-08-14T11:53:48.183Z,247.50
2018-08-14T11:54:48.159Z,225.00
2018-08-14T11:55:48.140Z,191.25
2018-08-14T11:56:48.111Z,157.50
2018-08-14T11:57:48.091Z,202.50
2018-08-14T11:58:48.065Z,213.75
2018-08-14T11:59:48.053Z,202.50
2018-08-14T12:00:48.020Z,213.75
2018-08-14T12:01:47.983Z,219.38
2018-08-14T12:02:47.970Z,185.63
2018-08-14T12:03:47.940Z,230.63
2018-08-14T12:04:47.909Z,258.75
2018-08-14T12:05:47.894Z,253.13
2018-08-14T12:06:47.911Z,225.00
2018-08-14T12:07:47.846Z,191.25
2018-08-14T12:08:47.813Z,174.38
2018-08-14T12:09:47.792Z,202.50
2018-08-14T12:10:47.786Z,253.13
2018-08-14T12:11:47.758Z,275.63
2018-08-14T12:12:47.749Z,258.75
2018-08-14T12:13:47.690Z,219.38
2018-08-14T12:14:47.666Z,230.63
2018-08-14T12:15:47.646Z,253.13
2018-08-14T12:16:47.619Z,275.63
2018-08-14T12:17:47.600Z,275.63
2018-08-14T12:18:47.566Z,247.50
2018-08-14T12:19:47.546Z,230.63
2018-08-14T12:20:47.527Z,225.00
2018-08-14T12:21:47.493Z,270.00
2018-08-14T12:22:47.480Z,275.63
2018-08-14T12:23:47.445Z,270.00
2018-08-14T12:24:47.425Z,281.25
2018-08-14T12:25:47.398Z,309.38
2018-08-14T12:26:47.377Z,309.38
2018-08-14T12:27:47.376Z,303.75
2018-08-14T12:28:47.330Z,315.00
2018-08-14T12:29:47.308Z,286.88
2018-08-14T12:30:47.282Z,275.63
2018-08-14T12:31:47.252Z,225.00
2018-08-14T12:32:47.235Z,196.88
2018-08-14T12:33:47.204Z,219.38
2018-08-14T12:34:47.186Z,208.13
2018-08-14T12:35:47.158Z,180.00
2018-08-14T12:36:47.132Z,191.25
2018-08-14T12:37:47.113Z,208.13
2018-08-14T12:38:47.090Z,202.50
2018-08-14T12:39:47.079Z,191.25
2018-08-14T12:40:47.033Z,230.63
2018-08-14T12:41:47.013Z,281.25
2018-08-14T12:42:46.989Z,343.13
2018-08-14T12:43:46.968Z,320.63
2018-08-14T12:44:46.936Z,309.38
2018-08-14T12:45:46.931Z,315.00
2018-08-14T12:46:46.893Z,281.25
2018-08-14T12:47:46.864Z,264.38
2018-08-14T12:48:46.839Z,264.38
2018-08-14T12:49:46.828Z,230.63
2018-08-14T12:50:46.795Z,236.25
2018-08-14T12:51:46.772Z,303.75
2018-08-14T12:52:46.751Z,298.13
2018-08-14T12:53:46.721Z,309.38
2018-08-14T12:54:46.699Z,286.88
2018-08-14T12:55:46.711Z,258.75
2018-08-14T12:56:46.649Z,225.00
2018-08-14T12:57:46.621Z,213.75
2018-08-14T12:58:46.600Z,213.75
2018-08-14T12:59:46.635Z,208.13
2018-08-14T13:00:46.548Z,208.13
2018-08-14T13:01:46.592Z,213.75
2018-08-14T13:02:46.499Z,241.88
2018-08-14T13:03:46.490Z,230.63
2018-08-14T13:04:46.451Z,230.63
2018-08-14T13:05:46.429Z,258.75
2018-08-14T13:06:46.405Z,236.25
2018-08-14T13:07:46.383Z,236.25
2018-08-14T13:08:46.410Z,213.75
2018-08-14T13:09:46.331Z,219.38
2018-08-14T13:10:46.320Z,247.50
2018-08-14T13:11:46.282Z,241.88
2018-08-14T13:12:46.269Z,230.63
2018-08-14T13:13:46.233Z,225.00
2018-08-14T13:14:46.215Z,202.50
2018-08-14T13:15:46.230Z,213.75
2018-08-14T13:16:46.178Z,230.63
2018-08-14T13:17:46.138Z,202.50
2018-08-14T13:18:46.115Z,213.75
2018-08-14T13:19:46.094Z,230.63
2018-08-14T13:20:46.104Z,253.13
2018-08-14T13:21:46.043Z,264.38
2018-08-14T13:22:46.023Z,253.13
2018-08-14T13:23:46.061Z,230.63
2018-08-14T13:24:45.971Z,225.00
2018-08-14T13:25:45.949Z,236.25
2018-08-14T13:26:45.930Z,298.13
2018-08-14T13:27:45.899Z,253.13
2018-08-14T13:28:45.880Z,213.75
2018-08-14T13:29:45.852Z,196.88